sensor_id;sensor_type;location;lat;lon;timestamp;pressure;altitude;pressure_sealevel;temperature
50206;BMP280;36098;48.390;10.856;2023-03-01T00:00:05;96640.72;;;22.77
50206;BMP280;36098;48.390;10.856;2023-03-01T00:02:32;96637.03;;;22.73
50206;BMP280;36098;48.390;10.856;2023-03-01T00:04:57;96640.69;;;22.72
50206;BMP280;36098;48.390;10.856;2023-03-01T00:07:22;96637.78;;;22.69
50206;BMP280;36098;48.390;10.856;2023-03-01T00:09:47;96631.16;;;22.66
50206;BMP280;36098;48.390;10.856;2023-03-01T00:12:13;96635.88;;;22.64
50206;BMP280;36098;48.390;10.856;2023-03-01T00:14:38;96632.75;;;22.67
50206;BMP280;36098;48.390;10.856;2023-03-01T00:17:04;96624.84;;;22.67
50206;BMP280;36098;48.390;10.856;2023-03-01T00:19:29;96619.84;;;22.66
50206;BMP280;36098;48.390;10.856;2023-03-01T00:21:54;96623.50;;;22.60
50206;BMP280;36098;48.390;10.856;2023-03-01T00:24:19;96620.88;;;22.60
50206;BMP280;36098;48.390;10.856;2023-03-01T00:26:45;96619.81;;;22.61
50206;BMP280;36098;48.390;10.856;2023-03-01T00:29:11;96617.13;;;22.56
50206;BMP280;36098;48.390;10.856;2023-03-01T00:31:36;96620.56;;;22.51
50206;BMP280;36098;48.390;10.856;2023-03-01T00:34:03;96609.22;;;22.51
50206;BMP280;36098;48.390;10.856;2023-03-01T00:36:30;96608.38;;;22.45
50206;BMP280;36098;48.390;10.856;2023-03-01T00:38:55;96609.72;;;22.48
50206;BMP280;36098;48.390;10.856;2023-03-01T00:41:21;96604.47;;;22.48
50206;BMP280;36098;48.390;10.856;2023-03-01T00:43:47;96605.50;;;22.47
50206;BMP280;36098;48.390;10.856;2023-03-01T00:46:14;96605.50;;;22.47
50206;BMP280;36098;48.390;10.856;2023-03-01T00:48:39;96601.75;;;22.38
50206;BMP280;36098;48.390;10.856;2023-03-01T00:51:08;96598.09;;;22.39
50206;BMP280;36098;48.390;10.856;2023-03-01T00:53:34;96597.50;;;22.37
50206;BMP280;36098;48.390;10.856;2023-03-01T00:56:00;96597.03;;;22.40
50206;BMP280;36098;48.390;10.856;2023-03-01T00:58:25;96602.31;;;22.40
50206;BMP280;36098;48.390;10.856;2023-03-01T01:00:50;96595.13;;;22.35
50206;BMP280;36098;48.390;10.856;2023-03-01T01:03:17;96589.28;;;22.28
50206;BMP280;36098;48.390;10.856;2023-03-01T01:05:42;96583.22;;;22.28
50206;BMP280;36098;48.390;10.856;2023-03-01T01:08:07;96590.88;;;22.29
50206;BMP280;36098;48.390;10.856;2023-03-01T01:10:34;96579.03;;;22.32
50206;BMP280;36098;48.390;10.856;2023-03-01T01:12:59;96573.25;;;22.30
50206;BMP280;36098;48.390;10.856;2023-03-01T01:15:26;96573.47;;;22.28
50206;BMP280;36098;48.390;10.856;2023-03-01T01:17:53;96565.06;;;22.26
50206;BMP280;36098;48.390;10.856;2023-03-01T01:20:18;96572.63;;;22.18
50206;BMP280;36098;48.390;10.856;2023-03-01T01:22:43;96568.41;;;22.17
50206;BMP280;36098;48.390;10.856;2023-03-01T01:25:09;96565.78;;;22.17
50206;BMP280;36098;48.390;10.856;2023-03-01T01:27:34;96566.28;;;22.14
50206;BMP280;36098;48.390;10.856;2023-03-01T01:29:59;96575.22;;;22.13
50206;BMP280;36098;48.390;10.856;2023-03-01T01:32:25;96558.34;;;22.09
50206;BMP280;36098;48.390;10.856;2023-03-01T01:34:50;96556.78;;;22.08
50206;BMP280;36098;48.390;10.856;2023-03-01T01:37:15;96546.25;;;22.08
50206;BMP280;36098;48.390;10.856;2023-03-01T01:39:43;96547.31;;;22.07
50206;BMP280;36098;48.390;10.856;2023-03-01T01:42:13;96548.03;;;22.02
50206;BMP280;36098;48.390;10.856;2023-03-01T01:44:40;96552.53;;;22.02
50206;BMP280;36098;48.390;10.856;2023-03-01T01:47:05;96552.03;;;22.05
50206;BMP280;36098;48.390;10.856;2023-03-01T01:52:18;96549.91;;;22.02
50206;BMP280;36098;48.390;10.856;2023-03-01T01:54:56;96552.78;;;22.05
50206;BMP280;36098;48.390;10.856;2023-03-01T01:57:30;96545.41;;;22.02
50206;BMP280;36098;48.390;10.856;2023-03-01T02:00:00;96544.38;;;22.03
50206;BMP280;36098;48.390;10.856;2023-03-01T02:02:27;96546.72;;;22.00
50206;BMP280;36098;48.390;10.856;2023-03-01T02:04:54;96543.78;;;21.96
50206;BMP280;36098;48.390;10.856;2023-03-01T02:07:23;96543.50;;;21.93
50206;BMP280;36098;48.390;10.856;2023-03-01T02:09:50;96542.19;;;21.90
50206;BMP280;36098;48.390;10.856;2023-03-01T02:12:18;96541.91;;;21.92
50206;BMP280;36098;48.390;10.856;2023-03-01T02:14:44;96541.91;;;21.92
50206;BMP280;36098;48.390;10.856;2023-03-01T02:17:11;96547.16;;;21.92
50206;BMP280;36098;48.390;10.856;2023-03-01T02:26:55;96531.16;;;21.93
50206;BMP280;36098;48.390;10.856;2023-03-01T02:29:23;96527.16;;;21.86
50206;BMP280;36098;48.390;10.856;2023-03-01T02:31:49;96520.03;;;21.86
50206;BMP280;36098;48.390;10.856;2023-03-01T02:34:16;96523.47;;;21.87
50206;BMP280;36098;48.390;10.856;2023-03-01T02:36:53;96516.31;;;21.82
50206;BMP280;36098;48.390;10.856;2023-03-01T02:39:21;96517.13;;;21.83
50206;BMP280;36098;48.390;10.856;2023-03-01T02:41:52;96517.16;;;21.88
50206;BMP280;36098;48.390;10.856;2023-03-01T02:44:18;96521.06;;;21.85
50206;BMP280;36098;48.390;10.856;2023-03-01T02:46:50;96528.44;;;21.83
50206;BMP280;36098;48.390;10.856;2023-03-01T02:49:20;96523.69;;;21.80
50206;BMP280;36098;48.390;10.856;2023-03-01T02:56:54;96511.56;;;21.79
50206;BMP280;36098;48.390;10.856;2023-03-01T02:59:21;96517.84;;;21.73
50206;BMP280;36098;48.390;10.856;2023-03-01T03:01:47;96512.84;;;21.77
50206;BMP280;36098;48.390;10.856;2023-03-01T03:04:14;96509.69;;;21.75
50206;BMP280;36098;48.390;10.856;2023-03-01T03:06:46;96510.47;;;21.70
50206;BMP280;36098;48.390;10.856;2023-03-01T03:09:12;96513.09;;;21.70
50206;BMP280;36098;48.390;10.856;2023-03-01T03:11:37;96498.91;;;21.71
50206;BMP280;36098;48.390;10.856;2023-03-01T03:14:04;96512.31;;;21.75
50206;BMP280;36098;48.390;10.856;2023-03-01T03:16:29;96500.72;;;21.71
50206;BMP280;36098;48.390;10.856;2023-03-01T03:18:55;96500.72;;;21.71
50206;BMP280;36098;48.390;10.856;2023-03-01T03:21:31;96504.91;;;21.67
50206;BMP280;36098;48.390;10.856;2023-03-01T03:23:56;96503.06;;;21.67
50206;BMP280;36098;48.390;10.856;2023-03-01T03:26:21;96501.72;;;21.65
50206;BMP280;36098;48.390;10.856;2023-03-01T03:28:46;96502.28;;;21.67
50206;BMP280;36098;48.390;10.856;2023-03-01T03:31:11;96492.00;;;21.65
50206;BMP280;36098;48.390;10.856;2023-03-01T03:36:04;96493.03;;;21.64
50206;BMP280;36098;48.390;10.856;2023-03-01T03:38:30;96498.00;;;21.61
50206;BMP280;36098;48.390;10.856;2023-03-01T03:41:02;96493.22;;;21.58
50206;BMP280;36098;48.390;10.856;2023-03-01T03:43:28;96498.00;;;21.61
50206;BMP280;36098;48.390;10.856;2023-03-01T03:45:53;96493.22;;;21.58
50206;BMP280;36098;48.390;10.856;2023-03-01T03:48:19;96496.38;;;21.60
50206;BMP280;36098;48.390;10.856;2023-03-01T03:50:49;96493.72;;;21.55
50206;BMP280;36098;48.390;10.856;2023-03-01T03:53:14;96496.88;;;21.57
50206;BMP280;36098;48.390;10.856;2023-03-01T03:55:40;96490.53;;;21.53
50206;BMP280;36098;48.390;10.856;2023-03-01T03:58:06;96492.13;;;21.54
50206;BMP280;36098;48.390;10.856;2023-03-01T04:00:33;96488.19;;;21.51
50206;BMP280;36098;48.390;10.856;2023-03-01T04:02:59;96481.34;;;21.50
50206;BMP280;36098;48.390;10.856;2023-03-01T04:05:25;96480.84;;;21.53
50206;BMP280;36098;48.390;10.856;2023-03-01T04:07:52;96478.44;;;21.52
50206;BMP280;36098;48.390;10.856;2023-03-01T04:10:26;96484.22;;;21.49
50206;BMP280;36098;48.390;10.856;2023-03-01T04:12:52;96478.16;;;21.48
50206;BMP280;36098;48.390;10.856;2023-03-01T04:15:17;96478.41;;;21.47
50206;BMP280;36098;48.390;10.856;2023-03-01T04:17:44;96468.94;;;21.46
50206;BMP280;36098;48.390;10.856;2023-03-01T04:20:11;96473.69;;;21.49
50206;BMP280;36098;48.390;10.856;2023-03-01T04:22:38;96467.63;;;21.48
50206;BMP280;36098;48.390;10.856;2023-03-01T04:25:03;96462.94;;;21.50
50206;BMP280;36098;48.390;10.856;2023-03-01T04:27:34;96468.44;;;21.49
50206;BMP280;36098;48.390;10.856;2023-03-01T04:29:59;96464.47;;;21.46
50206;BMP280;36098;48.390;10.856;2023-03-01T04:32:27;96457.88;;;21.44
50206;BMP280;36098;48.390;10.856;2023-03-01T04:34:53;96463.66;;;21.41
50206;BMP280;36098;48.390;10.856;2023-03-01T04:37:21;96468.91;;;21.41
50206;BMP280;36098;48.390;10.856;2023-03-01T04:39:51;96464.63;;;21.35
50206;BMP280;36098;48.390;10.856;2023-03-01T04:42:17;96455.78;;;21.41
50206;BMP280;36098;48.390;10.856;2023-03-01T04:44:43;96455.47;;;21.38
50206;BMP280;36098;48.390;10.856;2023-03-01T04:47:20;96456.25;;;21.38
50206;BMP280;36098;48.390;10.856;2023-03-01T04:49:51;96463.84;;;21.35
50206;BMP280;36098;48.390;10.856;2023-03-01T04:52:25;96467.75;;;21.32
50206;BMP280;36098;48.390;10.856;2023-03-01T04:54:54;96461.72;;;21.32
50206;BMP280;36098;48.390;10.856;2023-03-01T04:57:22;96461.75;;;21.37
50206;BMP280;36098;48.390;10.856;2023-03-01T04:59:55;96455.47;;;21.38
50206;BMP280;36098;48.390;10.856;2023-03-01T05:02:20;96459.91;;;21.37
50206;BMP280;36098;48.390;10.856;2023-03-01T05:04:48;96458.53;;;21.30
50206;BMP280;36098;48.390;10.856;2023-03-01T05:07:14;96464.13;;;21.38
50206;BMP280;36098;48.390;10.856;2023-03-01T05:09:46;96456.34;;;21.22
50206;BMP280;36098;48.390;10.856;2023-03-01T05:12:12;96445.97;;;21.05
50206;BMP280;36098;48.390;10.856;2023-03-01T05:14:45;96453.66;;;20.90
50206;BMP280;36098;48.390;10.856;2023-03-01T05:17:10;96457.34;;;20.89
50206;BMP280;36098;48.390;10.856;2023-03-01T05:19:38;96456.34;;;20.95
50206;BMP280;36098;48.390;10.856;2023-03-01T05:22:03;96457.25;;;21.06
50206;BMP280;36098;48.390;10.856;2023-03-01T05:24:29;96451.59;;;21.19
50206;BMP280;36098;48.390;10.856;2023-03-01T05:26:55;96453.88;;;21.37
50206;BMP280;36098;48.390;10.856;2023-03-01T05:29:21;96449.00;;;21.50
50206;BMP280;36098;48.390;10.856;2023-03-01T05:31:59;96443.94;;;21.70
50206;BMP280;36098;48.390;10.856;2023-03-01T05:36:52;96439.97;;;22.04
50206;BMP280;36098;48.390;10.856;2023-03-01T05:39:22;96438.72;;;22.16
50206;BMP280;36098;48.390;10.856;2023-03-01T05:41:53;96443.25;;;22.26
50206;BMP280;36098;48.390;10.856;2023-03-01T05:44:19;96442.25;;;22.37
50206;BMP280;36098;48.390;10.856;2023-03-01T05:46:45;96441.28;;;22.48
50206;BMP280;36098;48.390;10.856;2023-03-01T05:49:11;96443.94;;;22.53
50206;BMP280;36098;48.390;10.856;2023-03-01T05:51:38;96445.56;;;22.59
50206;BMP280;36098;48.390;10.856;2023-03-01T05:54:03;96449.25;;;22.63
50206;BMP280;36098;48.390;10.856;2023-03-01T05:56:31;96455.06;;;22.70
50206;BMP280;36098;48.390;10.856;2023-03-01T05:58:57;96457.72;;;22.75
50206;BMP280;36098;48.390;10.856;2023-03-01T06:01:22;96455.66;;;22.82
50206;BMP280;36098;48.390;10.856;2023-03-01T06:03:47;96455.13;;;22.90
50206;BMP280;36098;48.390;10.856;2023-03-01T06:06:12;96447.00;;;22.96
50206;BMP280;36098;48.390;10.856;2023-03-01T06:08:37;96445.41;;;23.00
50206;BMP280;36098;48.390;10.856;2023-03-01T06:11:03;96444.91;;;23.03
50206;BMP280;36098;48.390;10.856;2023-03-01T06:13:28;96449.91;;;23.10
50206;BMP280;36098;48.390;10.856;2023-03-01T06:15:53;96452.06;;;23.13
50206;BMP280;36098;48.390;10.856;2023-03-01T06:18:18;96447.34;;;23.20
50206;BMP280;36098;48.390;10.856;2023-03-01T06:20:44;96446.03;;;23.22
50206;BMP280;36098;48.390;10.856;2023-03-01T06:23:09;96448.94;;;23.26
50206;BMP280;36098;48.390;10.856;2023-03-01T06:25:34;96447.34;;;23.34
50206;BMP280;36098;48.390;10.856;2023-03-01T06:27:59;96450.25;;;23.43
50206;BMP280;36098;48.390;10.856;2023-03-01T06:30:25;96451.59;;;23.50
50206;BMP280;36098;48.390;10.856;2023-03-01T06:32:50;96458.44;;;23.51
50206;BMP280;36098;48.390;10.856;2023-03-01T06:35:16;96462.66;;;23.52
50206;BMP280;36098;48.390;10.856;2023-03-01T06:37:45;96461.09;;;23.46
50206;BMP280;36098;48.390;10.856;2023-03-01T06:40:11;96460.56;;;23.44
50206;BMP280;36098;48.390;10.856;2023-03-01T06:42:36;96460.03;;;23.42
50206;BMP280;36098;48.390;10.856;2023-03-01T06:45:02;96457.13;;;23.39
50206;BMP280;36098;48.390;10.856;2023-03-01T06:47:28;96463.19;;;23.39
50206;BMP280;36098;48.390;10.856;2023-03-01T06:49:53;96466.59;;;23.45
50206;BMP280;36098;48.390;10.856;2023-03-01T06:52:18;96452.13;;;23.47
50206;BMP280;36098;48.390;10.856;2023-03-01T06:54:43;96450.00;;;23.54
50206;BMP280;36098;48.390;10.856;2023-03-01T06:57:08;96447.91;;;23.61
50206;BMP280;36098;48.390;10.856;2023-03-01T06:59:33;96450.53;;;23.66
50206;BMP280;36098;48.390;10.856;2023-03-01T07:01:59;96447.91;;;23.71
50206;BMP280;36098;48.390;10.856;2023-03-01T07:04:24;96447.63;;;23.78
50206;BMP280;36098;48.390;10.856;2023-03-01T07:06:49;96442.13;;;23.84
50206;BMP280;36098;48.390;10.856;2023-03-01T07:09:20;96448.44;;;23.88
50206;BMP280;36098;48.390;10.856;2023-03-01T07:11:46;96447.38;;;23.94
50206;BMP280;36098;48.390;10.856;2023-03-01T07:14:12;96453.72;;;23.98
50206;BMP280;36098;48.390;10.856;2023-03-01T07:16:37;96450.81;;;23.95
50206;BMP280;36098;48.390;10.856;2023-03-01T07:19:02;96444.22;;;24.02
50206;BMP280;36098;48.390;10.856;2023-03-01T07:21:27;96448.44;;;24.03
50206;BMP280;36098;48.390;10.856;2023-03-01T07:23:52;96443.44;;;24.07
50206;BMP280;36098;48.390;10.856;2023-03-01T07:26:18;96442.63;;;24.11
50206;BMP280;36098;48.390;10.856;2023-03-01T07:28:43;96443.66;;;24.15
50206;BMP280;36098;48.390;10.856;2023-03-01T07:31:08;96425.19;;;24.20
50206;BMP280;36098;48.390;10.856;2023-03-01T07:33:33;96426.22;;;24.24
50206;BMP280;36098;48.390;10.856;2023-03-01T07:35:59;96426.50;;;24.28
50206;BMP280;36098;48.390;10.856;2023-03-01T07:38:25;96425.44;;;24.29
50206;BMP280;36098;48.390;10.856;2023-03-01T07:40:50;96431.78;;;24.28
50206;BMP280;36098;48.390;10.856;2023-03-01T07:43:15;96420.16;;;24.29
50206;BMP280;36098;48.390;10.856;2023-03-01T07:45:40;96418.06;;;24.26
50206;BMP280;36098;48.390;10.856;2023-03-01T07:48:05;96415.16;;;24.22
50206;BMP280;36098;48.390;10.856;2023-03-01T07:50:30;96410.94;;;24.21
50206;BMP280;36098;48.390;10.856;2023-03-01T07:52:56;96413.59;;;24.16
50206;BMP280;36098;48.390;10.856;2023-03-01T07:55:21;96410.19;;;24.11
50206;BMP280;36098;48.390;10.856;2023-03-01T07:57:46;96417.06;;;24.07
50206;BMP280;36098;48.390;10.856;2023-03-01T08:00:11;96411.75;;;24.02
50206;BMP280;36098;48.390;10.856;2023-03-01T08:02:37;96411.53;;;23.98
50206;BMP280;36098;48.390;10.856;2023-03-01T08:05:02;96413.38;;;23.93
50206;BMP280;36098;48.390;10.856;2023-03-01T08:07:27;96407.84;;;23.89
50206;BMP280;36098;48.390;10.856;2023-03-01T08:09:52;96409.94;;;23.87
50206;BMP280;36098;48.390;10.856;2023-03-01T08:12:18;96403.63;;;23.98
50206;BMP280;36098;48.390;10.856;2023-03-01T08:14:43;96406.25;;;23.98
50206;BMP280;36098;48.390;10.856;2023-03-01T08:17:08;96415.47;;;23.86
50206;BMP280;36098;48.390;10.856;2023-03-01T08:19:33;96400.66;;;24.05
50206;BMP280;36098;48.390;10.856;2023-03-01T08:21:59;96412.31;;;23.79
50206;BMP280;36098;48.390;10.856;2023-03-01T08:24:27;96416.53;;;23.65
50206;BMP280;36098;48.390;10.856;2023-03-01T08:26:52;96413.91;;;23.60
50206;BMP280;36098;48.390;10.856;2023-03-01T08:29:17;96408.91;;;23.58
50206;BMP280;36098;48.390;10.856;2023-03-01T08:31:42;96407.03;;;23.59
50206;BMP280;36098;48.390;10.856;2023-03-01T08:34:09;96409.97;;;23.57
50206;BMP280;36098;48.390;10.856;2023-03-01T08:36:36;96403.63;;;23.63
50206;BMP280;36098;48.390;10.856;2023-03-01T08:39:02;96411.25;;;23.95
50206;BMP280;36098;48.390;10.856;2023-03-01T08:41:27;96402.03;;;23.97
50206;BMP280;36098;48.390;10.856;2023-03-01T08:43:52;96398.81;;;24.10
50206;BMP280;36098;48.390;10.856;2023-03-01T08:46:23;96392.78;;;24.10
50206;BMP280;36098;48.390;10.856;2023-03-01T08:48:48;96391.44;;;24.12
50206;BMP280;36098;48.390;10.856;2023-03-01T08:51:14;96392.25;;;24.08
50206;BMP280;36098;48.390;10.856;2023-03-01T08:53:40;96396.72;;;24.07
50206;BMP280;36098;48.390;10.856;2023-03-01T08:56:05;96392.25;;;24.03
50206;BMP280;36098;48.390;10.856;2023-03-01T08:58:30;96386.19;;;24.02
50206;BMP280;36098;48.390;10.856;2023-03-01T09:00:56;96389.38;;;23.84
50206;BMP280;36098;48.390;10.856;2023-03-01T09:03:21;96392.03;;;23.49
50206;BMP280;36098;48.390;10.856;2023-03-01T09:05:46;96393.59;;;23.45
50206;BMP280;36098;48.390;10.856;2023-03-01T09:08:12;96385.69;;;23.26
50206;BMP280;36098;48.390;10.856;2023-03-01T09:10:37;96382.53;;;23.24
50206;BMP280;36098;48.390;10.856;2023-03-01T09:13:03;96385.16;;;23.28
50206;BMP280;36098;48.390;10.856;2023-03-01T09:15:28;96382.28;;;23.35
50206;BMP280;36098;48.390;10.856;2023-03-01T09:17:53;96383.84;;;23.41
50206;BMP280;36098;48.390;10.856;2023-03-01T09:20:18;96380.97;;;23.47
50206;BMP280;36098;48.390;10.856;2023-03-01T09:22:43;96380.97;;;23.42
50206;BMP280;36098;48.390;10.856;2023-03-01T09:25:09;96380.69;;;23.39
50206;BMP280;36098;48.390;10.856;2023-03-01T09:27:34;96380.69;;;23.39
50206;BMP280;36098;48.390;10.856;2023-03-01T09:29:59;96380.41;;;23.50
50206;BMP280;36098;48.390;10.856;2023-03-01T09:32:25;96373.03;;;23.52
50206;BMP280;36098;48.390;10.856;2023-03-01T09:34:50;96376.22;;;23.44
50206;BMP280;36098;48.390;10.856;2023-03-01T09:37:34;96373.56;;;23.49
50206;BMP280;36098;48.390;10.856;2023-03-01T09:39:59;96384.09;;;23.54
50206;BMP280;36098;48.390;10.856;2023-03-01T09:42:24;96388.34;;;23.60
50206;BMP280;36098;48.390;10.856;2023-03-01T09:44:54;96375.69;;;23.52
50206;BMP280;36098;48.390;10.856;2023-03-01T09:47:26;96368.03;;;23.41
50206;BMP280;36098;48.390;10.856;2023-03-01T09:50:04;96369.88;;;23.30
50206;BMP280;36098;48.390;10.856;2023-03-01T09:52:38;96374.09;;;23.22
50206;BMP280;36098;48.390;10.856;2023-03-01T09:55:15;96366.72;;;23.19
50206;BMP280;36098;48.390;10.856;2023-03-01T10:00:14;96353.03;;;23.27
50206;BMP280;36098;48.390;10.856;2023-03-01T10:02:43;96351.69;;;23.44
50206;BMP280;36098;48.390;10.856;2023-03-01T10:05:33;96351.41;;;23.70
50206;BMP280;36098;48.390;10.856;2023-03-01T10:07:58;96346.16;;;23.60
50206;BMP280;36098;48.390;10.856;2023-03-01T10:10:34;96354.59;;;23.52
50206;BMP280;36098;48.390;10.856;2023-03-01T10:13:01;96341.41;;;23.52
50206;BMP280;36098;48.390;10.856;2023-03-01T10:15:34;96335.09;;;23.58
50206;BMP280;36098;48.390;10.856;2023-03-01T10:18:10;96333.47;;;23.67
50206;BMP280;36098;48.390;10.856;2023-03-01T10:23:05;96327.16;;;23.68
50206;BMP280;36098;48.390;10.856;2023-03-01T10:28:02;96329.78;;;23.88
50206;BMP280;36098;48.390;10.856;2023-03-01T10:30:38;96327.16;;;23.63
50206;BMP280;36098;48.390;10.856;2023-03-01T10:33:09;96321.34;;;23.71
50206;BMP280;36098;48.390;10.856;2023-03-01T10:35:38;96323.97;;;23.76
50206;BMP280;36098;48.390;10.856;2023-03-01T10:38:10;96322.38;;;23.75
50206;BMP280;36098;48.390;10.856;2023-03-01T10:40:36;96326.09;;;23.54
50206;BMP280;36098;48.390;10.856;2023-03-01T10:43:14;96314.78;;;23.69
50206;BMP280;36098;48.390;10.856;2023-03-01T10:45:39;96311.84;;;23.70
50206;BMP280;36098;48.390;10.856;2023-03-01T10:48:21;96306.31;;;23.82
50206;BMP280;36098;48.390;10.856;2023-03-01T10:51:12;96300.22;;;23.91
50206;BMP280;36098;48.390;10.856;2023-03-01T10:53:41;96295.22;;;23.85
50206;BMP280;36098;48.390;10.856;2023-03-01T10:56:07;96305.47;;;24.01
50206;BMP280;36098;48.390;10.856;2023-03-01T10:58:33;96288.31;;;24.09
50206;BMP280;36098;48.390;10.856;2023-03-01T11:01:00;96292.81;;;24.03
50206;BMP280;36098;48.390;10.856;2023-03-01T11:03:27;96282.75;;;24.05
50206;BMP280;36098;48.390;10.856;2023-03-01T11:05:57;96299.69;;;23.94
50206;BMP280;36098;48.390;10.856;2023-03-01T11:13:34;96279.06;;;24.06
50206;BMP280;36098;48.390;10.856;2023-03-01T11:16:02;96272.25;;;23.90
50206;BMP280;36098;48.390;10.856;2023-03-01T11:18:28;96277.88;;;23.69
50206;BMP280;36098;48.390;10.856;2023-03-01T11:20:54;96270.19;;;23.72
50206;BMP280;36098;48.390;10.856;2023-03-01T11:23:20;96262.28;;;23.67
50206;BMP280;36098;48.390;10.856;2023-03-01T11:25:51;96257.75;;;23.93
50206;BMP280;36098;48.390;10.856;2023-03-01T11:28:19;96249.84;;;23.93
50206;BMP280;36098;48.390;10.856;2023-03-01T11:31:02;96243.28;;;23.75
50206;BMP280;36098;48.390;10.856;2023-03-01T11:36:07;96239.06;;;23.79
50206;BMP280;36098;48.390;10.856;2023-03-01T11:38:35;96228.53;;;23.79
50206;BMP280;36098;48.390;10.856;2023-03-01T12:17:33;96168.81;;;24.42
50206;BMP280;36098;48.390;10.856;2023-03-01T12:22:38;96161.97;;;24.41
50206;BMP280;36098;48.390;10.856;2023-03-01T12:33:21;96159.72;;;24.24
50206;BMP280;36098;48.390;10.856;2023-03-01T12:35:50;96155.03;;;24.16
50206;BMP280;36098;48.390;10.856;2023-03-01T12:49:15;96137.16;;;24.03
50206;BMP280;36098;48.390;10.856;2023-03-01T12:51:44;96143.94;;;24.14
50206;BMP280;36098;48.390;10.856;2023-03-01T12:54:20;96137.72;;;23.95
50206;BMP280;36098;48.390;10.856;2023-03-01T12:56:49;96139.38;;;23.86
50206;BMP280;36098;48.390;10.856;2023-03-01T12:59:32;96132.53;;;23.80
50206;BMP280;36098;48.390;10.856;2023-03-01T13:02:09;96134.38;;;23.80
50206;BMP280;36098;48.390;10.856;2023-03-01T13:07:28;96129.91;;;23.80
50206;BMP280;36098;48.390;10.856;2023-03-01T13:10:06;96124.63;;;23.80
50206;BMP280;36098;48.390;10.856;2023-03-01T13:17:52;96120.41;;;23.84
50206;BMP280;36098;48.390;10.856;2023-03-01T13:20:23;96124.63;;;23.85
50206;BMP280;36098;48.390;10.856;2023-03-01T13:22:49;96119.09;;;23.87
50206;BMP280;36098;48.390;10.856;2023-03-01T13:25:25;96128.28;;;23.89
50206;BMP280;36098;48.390;10.856;2023-03-01T13:27:50;96129.81;;;24.00
50206;BMP280;36098;48.390;10.856;2023-03-01T13:33:33;96125.59;;;23.99
50206;BMP280;36098;48.390;10.856;2023-03-01T13:35:59;96125.31;;;24.01
50206;BMP280;36098;48.390;10.856;2023-03-01T13:41:09;96131.41;;;23.96
50206;BMP280;36098;48.390;10.856;2023-03-01T13:43:35;96127.13;;;24.05
50206;BMP280;36098;48.390;10.856;2023-03-01T13:46:01;96125.16;;;24.26
50206;BMP280;36098;48.390;10.856;2023-03-01T13:48:28;96126.06;;;24.40
50206;BMP280;36098;48.390;10.856;2023-03-01T13:50:55;96128.25;;;24.66
50206;BMP280;36098;48.390;10.856;2023-03-01T13:53:23;96120.59;;;24.31
50206;BMP280;36098;48.390;10.856;2023-03-01T13:55:57;96138.56;;;24.29
50206;BMP280;36098;48.390;10.856;2023-03-01T13:58:25;96121.59;;;24.40
50206;BMP280;36098;48.390;10.856;2023-03-01T14:03:21;96131.00;;;24.56
50206;BMP280;36098;48.390;10.856;2023-03-01T14:06:03;96131.97;;;24.32
50206;BMP280;36098;48.390;10.856;2023-03-01T14:08:31;96126.25;;;24.58
50206;BMP280;36098;48.390;10.856;2023-03-01T14:16:29;96118.13;;;24.78
50206;BMP280;36098;48.390;10.856;2023-03-01T14:19:00;96114.44;;;24.74
50206;BMP280;36098;48.390;10.856;2023-03-01T14:21:29;96123.72;;;25.00
50206;BMP280;36098;48.390;10.856;2023-03-01T14:23:54;96117.47;;;25.14
50206;BMP280;36098;48.390;10.856;2023-03-01T14:26:20;96109.75;;;25.23
50206;BMP280;36098;48.390;10.856;2023-03-01T14:28:46;96108.13;;;25.27
50206;BMP280;36098;48.390;10.856;2023-03-01T14:33:56;96104.63;;;25.31
50206;BMP280;36098;48.390;10.856;2023-03-01T14:36:31;96100.59;;;25.39
50206;BMP280;36098;48.390;10.856;2023-03-01T14:38:57;96097.88;;;25.44
50206;BMP280;36098;48.390;10.856;2023-03-01T14:41:30;96090.22;;;25.42
50206;BMP280;36098;48.390;10.856;2023-03-01T14:44:00;96093.63;;;25.24
50206;BMP280;36098;48.390;10.856;2023-03-01T14:46:28;96086.25;;;24.93
50206;BMP280;36098;48.390;10.856;2023-03-01T14:49:00;96087.91;;;25.13
50206;BMP280;36098;48.390;10.856;2023-03-01T14:53:51;96083.00;;;25.29
50206;BMP280;36098;48.390;10.856;2023-03-01T14:56:17;96086.53;;;25.20
50206;BMP280;36098;48.390;10.856;2023-03-01T14:58:43;96088.34;;;25.24
50206;BMP280;36098;48.390;10.856;2023-03-01T15:01:13;96079.13;;;24.94
50206;BMP280;36098;48.390;10.856;2023-03-01T15:03:43;96080.69;;;24.71
50206;BMP280;36098;48.390;10.856;2023-03-01T15:06:09;96075.63;;;24.46
50206;BMP280;36098;48.390;10.856;2023-03-01T15:08:35;96066.69;;;24.42
50206;BMP280;36098;48.390;10.856;2023-03-01T15:13:29;96049.97;;;24.80
50206;BMP280;36098;48.390;10.856;2023-03-01T15:16:01;96049.50;;;24.73
50206;BMP280;36098;48.390;10.856;2023-03-01T15:18:27;96041.06;;;24.71
50206;BMP280;36098;48.390;10.856;2023-03-01T15:20:53;96031.53;;;24.99
50206;BMP280;36098;48.390;10.856;2023-03-01T15:23:20;96041.41;;;24.88
50206;BMP280;36098;48.390;10.856;2023-03-01T15:25:47;96029.34;;;25.06
50206;BMP280;36098;48.390;10.856;2023-03-01T15:28:19;96039.53;;;24.94
50206;BMP280;36098;48.390;10.856;2023-03-01T15:30:52;96048.28;;;24.89
50206;BMP280;36098;48.390;10.856;2023-03-01T15:33:34;96041.19;;;25.08
50206;BMP280;36098;48.390;10.856;2023-03-01T15:36:03;96036.66;;;24.90
50206;BMP280;36098;48.390;10.856;2023-03-01T15:38:52;96049.50;;;24.73
50206;BMP280;36098;48.390;10.856;2023-03-01T15:41:23;96051.13;;;24.69
50206;BMP280;36098;48.390;10.856;2023-03-01T15:43:49;96053.00;;;24.69
50206;BMP280;36098;48.390;10.856;2023-03-01T15:48:43;96057.13;;;24.18
50206;BMP280;36098;48.390;10.856;2023-03-01T15:51:09;96062.25;;;24.04
50206;BMP280;36098;48.390;10.856;2023-03-01T15:53:36;96077.59;;;23.97
50206;BMP280;36098;48.390;10.856;2023-03-01T15:56:02;96061.22;;;24.00
50206;BMP280;36098;48.390;10.856;2023-03-01T15:58:27;96067.44;;;24.14
50206;BMP280;36098;48.390;10.856;2023-03-01T16:00:52;96066.09;;;24.17
50206;BMP280;36098;48.390;10.856;2023-03-01T16:03:22;96066.94;;;24.41